Terminal Aerodrome Forecast
Issued by NWS

Home | Current Version | Previous Version | Text Only | Print | Product List | Glossary Off
Versions: 1 2 3 4 5 6 7 8 9 10 11 12 13 14 15 16 17 18 19 20 21 22 23

000
FTUS43 KLOT 182120 AAA
TAFDPA
TAF AMD
KDPA 182120Z 1821/1918 03012KT 2SM -DZRA BR OVC008
      TEMPO 1821/1822 4SM -DZ OVC015
     FM190200 35012KT 1SM -SN BR OVC008
     FM190700 35012G18KT P6SM BKN015 OVC030
     FM191300 34010KT P6SM SCT030=

USA.gov is the U.S. government's official web portal to all federal, state and local government web resources and services.